createdAt,value
2017-01-01T00:00:00.974Z,2.73
2017-01-01T00:01:10.912Z,2.73
2017-01-01T00:02:21.197Z,2.74
2017-01-01T00:03:31.103Z,2.74
2017-01-01T00:04:40.944Z,2.73
2017-01-01T00:05:50.796Z,2.73
2017-01-01T00:07:01.025Z,2.7
2017-01-01T00:08:11.295Z,2.73
2017-01-01T00:09:21.538Z,2.64
2017-01-01T00:10:31.385Z,2.7
2017-01-01T00:11:41.688Z,2.67
2017-01-01T00:12:51.543Z,2.67
2017-01-01T00:14:01.780Z,2.6
2017-01-01T00:15:11.699Z,2.69
2017-01-01T00:16:22.012Z,2.63
2017-01-01T00:17:32.270Z,2.69
2017-01-01T00:18:41.740Z,2.62
2017-01-01T00:19:52.139Z,2.69
2017-01-01T00:21:02.498Z,2.66
2017-01-01T00:22:12.728Z,2.62
2017-01-01T00:23:22.274Z,2.62
2017-01-01T00:24:32.122Z,2.66
2017-01-01T00:25:42.128Z,2.67
2017-01-01T00:26:52.074Z,2.69
2017-01-01T00:28:02.370Z,2.7
2017-01-01T00:29:12.615Z,2.66
2017-01-01T00:30:22.615Z,2.62
2017-01-01T00:31:32.486Z,2.59
2017-01-01T00:32:42.726Z,2.64
2017-01-01T00:33:53.008Z,2.66
2017-01-01T00:35:03.385Z,2.66
2017-01-01T00:36:13.306Z,2.7
2017-01-01T00:37:23.625Z,2.74
2017-01-01T00:38:33.890Z,2.71
2017-01-01T00:39:44.183Z,2.67
2017-01-01T00:40:54.113Z,2.74
2017-01-01T00:42:04.346Z,2.74
2017-01-01T00:43:14.619Z,2.74
2017-01-01T00:44:25.015Z,2.69
2017-01-01T00:45:34.972Z,2.62
2017-01-01T00:46:44.834Z,2.66
2017-01-01T00:47:55.084Z,2.77
2017-01-01T00:49:04.923Z,2.69
2017-01-01T00:50:15.211Z,2.74
2017-01-01T00:51:25.447Z,2.66
2017-01-01T00:52:34.925Z,2.77
2017-01-01T00:53:45.178Z,2.71
2017-01-01T00:54:55.084Z,2.69
2017-01-01T00:56:05.348Z,2.69
2017-01-01T00:57:15.183Z,2.69
2017-01-01T00:58:25.024Z,2.67
2017-01-01T00:59:35.414Z,2.74
2017-01-01T01:00:45.255Z,2.77
2017-01-01T01:01:55.511Z,2.81
2017-01-01T01:03:05.352Z,2.81
2017-01-01T01:04:14.806Z,2.7
2017-01-01T01:05:25.206Z,2.77
2017-01-01T01:06:35.157Z,2.74
2017-01-01T01:07:45.020Z,2.78
2017-01-01T01:08:55.337Z,2.79
2017-01-01T01:10:05.194Z,2.77
2017-01-01T01:11:15.053Z,2.73
2017-01-01T01:12:24.494Z,2.82
2017-01-01T01:13:34.363Z,2.7
2017-01-01T01:14:44.735Z,2.79
2017-01-01T01:15:55.069Z,2.73
2017-01-01T01:17:05.407Z,2.79
2017-01-01T01:18:15.271Z,2.77
2017-01-01T01:19:25.669Z,2.7
2017-01-01T01:20:36.114Z,2.78
2017-01-01T01:21:46.467Z,2.77
2017-01-01T01:22:56.748Z,2.74
2017-01-01T01:24:07.002Z,2.77
2017-01-01T01:25:17.257Z,2.73
2017-01-01T01:26:27.629Z,2.77
2017-01-01T01:27:37.926Z,2.82
2017-01-01T01:28:47.768Z,2.78
2017-01-01T01:29:57.209Z,2.79
2017-01-01T01:31:06.653Z,2.81
2017-01-01T01:32:16.493Z,2.91
2017-01-01T01:33:26.328Z,2.84
2017-01-01T01:34:36.214Z,2.89
2017-01-01T01:35:46.504Z,2.94
2017-01-01T01:36:55.956Z,2.89
2017-01-01T01:38:05.856Z,2.91
2017-01-01T01:39:15.753Z,2.94
2017-01-01T01:40:26.043Z,2.91
2017-01-01T01:41:35.892Z,2.87
2017-01-01T01:42:46.129Z,2.97
2017-01-01T01:43:55.975Z,3.04
2017-01-01T01:45:06.215Z,3.06
2017-01-01T01:46:16.554Z,3.07
2017-01-01T01:47:26.809Z,3.06
2017-01-01T01:48:36.262Z,3.06
2017-01-01T01:49:46.508Z,3.07
2017-01-01T01:50:56.428Z,3.07
2017-01-01T01:52:06.731Z,3.06
2017-01-01T01:53:16.971Z,3.11
2017-01-01T01:54:27.216Z,3.11
2017-01-01T01:55:37.491Z,3.19
2017-01-01T01:56:47.874Z,3.16
2017-01-01T01:57:57.715Z,3.22
2017-01-01T01:59:07.179Z,3.21
2017-01-01T02:00:16.609Z,3.21
2017-01-01T02:01:26.873Z,3.16
2017-01-01T02:02:36.736Z,3.19
2017-01-01T02:03:46.594Z,3.22
2017-01-01T02:04:56.506Z,3.24
2017-01-01T02:06:06.924Z,3.16
2017-01-01T02:07:15.549Z,3.31
2017-01-01T02:08:25.102Z,3.21
2017-01-01T02:09:35.526Z,3.21
2017-01-01T02:10:44.952Z,3.25
2017-01-01T02:11:55.196Z,3.25
2017-01-01T02:13:05.037Z,3.28
2017-01-01T02:14:15.270Z,3.32
2017-01-01T02:15:24.740Z,3.29
2017-01-01T02:16:35.030Z,3.25
2017-01-01T02:17:44.912Z,3.28
2017-01-01T02:18:55.295Z,3.26
2017-01-01T02:20:04.765Z,3.29
2017-01-01T02:21:15.007Z,3.24
2017-01-01T02:22:24.862Z,3.25
2017-01-01T02:23:34.311Z,3.32
2017-01-01T02:24:44.599Z,3.29
2017-01-01T02:25:54.867Z,3.31
2017-01-01T02:27:05.190Z,3.25
2017-01-01T02:28:15.061Z,3.22
2017-01-01T02:29:25.310Z,3.19
2017-01-01T02:30:35.578Z,3.18
2017-01-01T02:31:45.996Z,3.25
2017-01-01T02:32:55.867Z,3.08
2017-01-01T02:34:05.694Z,3.13
2017-01-01T02:35:15.960Z,3.02
2017-01-01T02:36:26.198Z,3.06
2017-01-01T02:37:36.486Z,3.06
2017-01-01T02:38:46.807Z,3.04
2017-01-01T02:39:56.639Z,2.94
2017-01-01T02:41:06.498Z,2.97
2017-01-01T02:42:16.446Z,2.99
2017-01-01T02:43:26.694Z,2.85
2017-01-01T02:44:36.595Z,2.91
2017-01-01T02:45:46.943Z,2.85
2017-01-01T02:46:57.205Z,2.85
2017-01-01T02:48:07.452Z,2.91
2017-01-01T02:49:17.292Z,2.89
2017-01-01T02:50:27.169Z,2.81
2017-01-01T02:51:37.510Z,2.77
2017-01-01T02:52:47.011Z,2.78
2017-01-01T02:53:57.296Z,2.77
2017-01-01T02:55:07.572Z,2.74
2017-01-01T02:56:17.873Z,2.67
2017-01-01T02:57:28.313Z,2.66
2017-01-01T02:58:37.760Z,2.6
2017-01-01T02:59:47.609Z,2.6
2017-01-01T03:00:57.500Z,2.46
2017-01-01T03:02:07.802Z,2.48
2017-01-01T03:03:18.104Z,2.51
2017-01-01T03:04:28.420Z,2.45
2017-01-01T03:05:38.287Z,2.46
2017-01-01T03:06:47.355Z,2.45
2017-01-01T03:07:57.631Z,2.39
2017-01-01T03:09:07.868Z,2.37
2017-01-01T03:10:18.159Z,2.42
2017-01-01T03:11:28.027Z,2.33
2017-01-01T03:12:38.278Z,2.26
2017-01-01T03:13:48.527Z,2.34
2017-01-01T03:14:58.386Z,2.33
2017-01-01T03:16:40.462Z,2.27
2017-01-01T03:17:50.704Z,2.23
2017-01-01T03:19:00.618Z,2.27
2017-01-01T03:20:11.177Z,2.27
2017-01-01T03:21:21.426Z,2.27
2017-01-01T03:22:31.252Z,2.27
2017-01-01T03:23:40.297Z,2.27
2017-01-01T03:24:50.583Z,2.18
2017-01-01T03:26:00.463Z,2.26
2017-01-01T03:27:10.691Z,2.23
2017-01-01T03:28:20.970Z,2.21
2017-01-01T03:29:30.843Z,2.15
2017-01-01T03:30:41.117Z,2.09
2017-01-01T03:31:50.964Z,2.1
2017-01-01T03:33:00.953Z,2.05
2017-01-01T03:34:10.800Z,2.05
2017-01-01T03:35:21.050Z,2.01
2017-01-01T03:36:30.544Z,2.01
2017-01-01T03:37:40.785Z,2.03
2017-01-01T03:38:50.625Z,2
2017-01-01T03:40:00.940Z,2.01
2017-01-01T03:41:10.379Z,2.03
2017-01-01T03:42:20.700Z,2.06
2017-01-01T03:43:30.947Z,1.95
2017-01-01T03:44:41.194Z,2.01
2017-01-01T03:45:51.094Z,1.94
2017-01-01T03:47:00.928Z,2
2017-01-01T03:48:10.775Z,2
2017-01-01T03:49:20.651Z,2.01
2017-01-01T03:50:31.035Z,2.01
2017-01-01T03:51:41.310Z,1.94
2017-01-01T03:52:51.189Z,2.05
2017-01-01T03:54:01.203Z,2.01
2017-01-01T03:55:11.036Z,1.9
2017-01-01T03:56:21.264Z,1.9
2017-01-01T03:57:31.628Z,1.84
2017-01-01T03:58:42.156Z,1.9
2017-01-01T03:59:52.433Z,1.77
2017-01-01T04:01:02.764Z,1.8
2017-01-01T04:02:12.253Z,1.8
2017-01-01T04:03:22.101Z,1.84
2017-01-01T04:04:32.418Z,1.82
2017-01-01T04:05:42.691Z,1.92
2017-01-01T04:06:53.007Z,1.8
2017-01-01T04:08:03.245Z,1.9
2017-01-01T04:09:13.125Z,1.9
2017-01-01T04:10:23.406Z,1.85
2017-01-01T04:11:33.745Z,1.76
2017-01-01T04:12:43.173Z,1.84
2017-01-01T04:13:53.472Z,1.73
2017-01-01T04:15:02.966Z,1.7
2017-01-01T04:16:13.202Z,1.79
2017-01-01T04:17:23.041Z,1.79
2017-01-01T04:18:32.476Z,1.84
2017-01-01T04:19:42.434Z,1.74
2017-01-01T04:20:52.260Z,1.82
2017-01-01T04:22:02.311Z,1.72
2017-01-01T04:23:12.161Z,1.79
2017-01-01T04:24:22.055Z,1.74
2017-01-01T04:25:32.384Z,1.53
2017-01-01T04:26:42.618Z,1.55
2017-01-01T04:27:52.852Z,1.57
2017-01-01T04:29:03.081Z,1.53
2017-01-01T04:30:12.915Z,1.47
2017-01-01T04:31:23.156Z,1.6
2017-01-01T04:32:33.396Z,1.62
2017-01-01T04:33:43.276Z,1.57
2017-01-01T04:34:53.533Z,1.54
2017-01-01T04:36:03.771Z,1.58
2017-01-01T04:37:14.002Z,1.53
2017-01-01T04:38:23.854Z,1.46
2017-01-01T04:39:33.707Z,1.47
2017-01-01T04:40:43.196Z,1.57
2017-01-01T04:41:53.018Z,1.51
2017-01-01T04:43:02.489Z,1.47
2017-01-01T04:44:12.728Z,1.53
2017-01-01T04:45:22.555Z,1.5
2017-01-01T04:46:32.465Z,1.4
2017-01-01T04:47:42.814Z,1.48
2017-01-01T04:48:53.068Z,1.46
2017-01-01T04:50:03.313Z,1.38
2017-01-01T04:51:13.181Z,1.4
2017-01-01T04:52:22.662Z,1.35
2017-01-01T04:53:32.494Z,1.42
2017-01-01T04:54:41.934Z,1.39
2017-01-01T04:55:52.188Z,1.33
2017-01-01T04:57:02.603Z,1.36
2017-01-01T04:58:12.447Z,1.22
2017-01-01T04:59:22.708Z,1.18
2017-01-01T05:00:32.986Z,1.15
2017-01-01T05:01:43.266Z,1.12
2017-01-01T05:02:53.110Z,1.02
2017-01-01T05:04:03.345Z,1.03
2017-01-01T05:05:13.191Z,1.03
2017-01-01T05:06:23.131Z,0.97
2017-01-01T05:07:33.156Z,0.96
2017-01-01T05:08:42.989Z,1.02
2017-01-01T05:09:52.823Z,0.96
2017-01-01T05:11:02.782Z,1.03
2017-01-01T05:12:13.043Z,0.96
2017-01-01T05:13:22.875Z,0.93
2017-01-01T05:14:33.108Z,0.94
2017-01-01T05:15:42.538Z,1.02
2017-01-01T05:16:52.501Z,0.94
2017-01-01T05:18:02.334Z,0.9
2017-01-01T05:19:12.671Z,0.92
2017-01-01T05:20:22.500Z,0.93
2017-01-01T05:21:32.342Z,0.88
2017-01-01T05:22:42.290Z,0.9
2017-01-01T05:23:52.572Z,0.92
2017-01-01T05:25:02.797Z,0.9
2017-01-01T05:26:13.214Z,0.9
2017-01-01T05:27:23.139Z,0.9
2017-01-01T05:28:33.378Z,0.94
2017-01-01T05:29:43.653Z,0.99
2017-01-01T05:30:53.881Z,0.9
2017-01-01T05:32:04.110Z,0.9
2017-01-01T05:33:13.145Z,0.81
2017-01-01T05:34:23.400Z,0.82
2017-01-01T05:35:33.647Z,0.81
2017-01-01T05:36:43.891Z,0.72
2017-01-01T05:37:54.126Z,0.68
2017-01-01T05:39:04.354Z,0.71
2017-01-01T05:40:14.227Z,0.76
2017-01-01T05:41:24.056Z,0.67
2017-01-01T05:42:34.404Z,0.58
2017-01-01T05:43:44.270Z,0.57
2017-01-01T05:44:54.618Z,0.58
2017-01-01T05:46:04.874Z,0.54
2017-01-01T05:47:15.152Z,0.56
2017-01-01T05:48:25.633Z,0.4
2017-01-01T05:49:35.985Z,0.48
2017-01-01T05:50:46.254Z,0.38
2017-01-01T05:51:56.507Z,0.33
2017-01-01T05:53:06.589Z,0.25
2017-01-01T05:54:16.924Z,0.24
2017-01-01T05:55:27.192Z,0.2
2017-01-01T05:56:37.430Z,0.24
2017-01-01T05:57:47.705Z,0.09
2017-01-01T05:58:58.108Z,0.11
2017-01-01T06:00:08.385Z,0.16
2017-01-01T06:01:18.897Z,0.06
2017-01-01T06:02:29.165Z,0.24
2017-01-01T06:03:38.992Z,0.24
2017-01-01T06:04:48.826Z,0.2
2017-01-01T06:05:58.251Z,0.21
2017-01-01T06:07:08.536Z,0.08
2017-01-01T06:08:18.453Z,0.03
2017-01-01T06:09:28.742Z,0.11
2017-01-01T06:10:38.658Z,0.06
2017-01-01T06:11:48.943Z,0.06
2017-01-01T06:12:59.197Z,0.03
2017-01-01T06:14:09.477Z,-0.02
2017-01-01T06:15:19.772Z,0.05
2017-01-01T06:16:30.096Z,0.02
2017-01-01T06:17:39.929Z,0.02
2017-01-01T06:18:50.197Z,0.05
2017-01-01T06:20:00.148Z,0.05
2017-01-01T06:21:10.417Z,0.03
2017-01-01T06:22:20.713Z,0.08
2017-01-01T06:23:31.045Z,0.12
2017-01-01T06:24:40.904Z,0.03
2017-01-01T06:25:50.777Z,0.08
2017-01-01T06:27:01.028Z,0.09
2017-01-01T06:28:10.926Z,0.06
2017-01-01T06:29:20.776Z,0.01
2017-01-01T06:30:31.046Z,0.08
2017-01-01T06:31:41.433Z,0.02
2017-01-01T06:32:51.298Z,0.02
2017-01-01T06:34:01.577Z,-0.02
2017-01-01T06:35:11.807Z,0.03
2017-01-01T06:36:22.117Z,0.05
2017-01-01T06:37:32.381Z,-0.01
2017-01-01T06:38:42.643Z,0.06
2017-01-01T06:39:52.474Z,-0.01
2017-01-01T06:41:02.300Z,-0.02
2017-01-01T06:42:12.165Z,0.02
2017-01-01T06:43:22.021Z,-0.06
2017-01-01T06:44:31.889Z,-0.04
2017-01-01T06:45:42.115Z,-0.04
2017-01-01T06:46:52.071Z,-0.02
2017-01-01T06:48:02.359Z,-0.09
2017-01-01T06:49:12.190Z,-0.01
2017-01-01T06:50:22.592Z,-0.01
2017-01-01T06:51:32.856Z,-0.04
2017-01-01T06:52:42.828Z,-0.04
2017-01-01T06:53:53.108Z,-0.13
2017-01-01T06:55:03.368Z,-0.17
2017-01-01T06:56:13.249Z,-0.25
2017-01-01T06:57:23.092Z,-0.25
2017-01-01T06:58:32.916Z,-0.25
2017-01-01T06:59:42.432Z,-0.22
2017-01-01T07:00:52.282Z,-0.25
2017-01-01T07:02:02.141Z,-0.2
2017-01-01T07:03:12.418Z,-0.25
2017-01-01T07:04:22.332Z,-0.23
2017-01-01T07:05:31.805Z,-0.23
2017-01-01T07:06:42.047Z,-0.23
2017-01-01T07:07:51.877Z,-0.22
2017-01-01T07:09:02.115Z,-0.31
2017-01-01T07:10:11.684Z,-0.34
2017-01-01T07:11:21.227Z,-0.22
2017-01-01T07:12:31.161Z,-0.2
2017-01-01T07:13:41.394Z,-0.25
2017-01-01T07:14:51.424Z,-0.23
2017-01-01T07:16:00.863Z,-0.23
2017-01-01T07:17:11.128Z,-0.28
2017-01-01T07:18:21.363Z,-0.34
2017-01-01T07:19:31.664Z,-0.35
2017-01-01T07:20:41.968Z,-0.35
2017-01-01T07:21:51.392Z,-0.33
2017-01-01T07:23:01.227Z,-0.33
2017-01-01T07:24:11.547Z,-0.34
2017-01-01T07:25:21.827Z,-0.28
2017-01-01T07:26:31.694Z,-0.23
2017-01-01T07:27:41.523Z,-0.17
2017-01-01T07:28:51.410Z,-0.1
2017-01-01T07:30:00.831Z,-0.02
2017-01-01T07:31:11.143Z,0.01
2017-01-01T07:32:21.083Z,0.02
2017-01-01T07:33:30.973Z,0.06
2017-01-01T07:34:41.274Z,0.06
2017-01-01T07:35:51.168Z,0.11
2017-01-01T07:37:01.006Z,0.08
2017-01-01T07:38:11.351Z,0.03
2017-01-01T07:39:21.612Z,0.22
2017-01-01T07:40:31.727Z,0.24
2017-01-01T07:41:41.963Z,0.27
2017-01-01T07:42:51.817Z,0.33
2017-01-01T07:44:00.841Z,0.36
2017-01-01T07:45:11.081Z,0.38
2017-01-01T07:46:21.032Z,0.2
2017-01-01T07:47:30.947Z,0.33
2017-01-01T07:48:40.786Z,0.31
2017-01-01T07:49:51.023Z,0.31
2017-01-01T07:51:01.319Z,0.43
2017-01-01T07:52:11.252Z,0.31
2017-01-01T07:53:21.143Z,0.33
2017-01-01T07:54:30.597Z,0.27
2017-01-01T07:55:40.857Z,0.33
2017-01-01T07:56:51.118Z,0.3
2017-01-01T07:58:01.416Z,0.22
2017-01-01T07:59:11.303Z,0.24
2017-01-01T08:00:20.735Z,0.21
2017-01-01T08:01:30.689Z,0.22
2017-01-01T08:02:40.962Z,0.22
2017-01-01T08:03:50.888Z,0.38
2017-01-01T08:05:01.183Z,0.3
2017-01-01T08:06:11.464Z,0.38
2017-01-01T08:07:20.882Z,0.42
2017-01-01T08:08:30.745Z,0.3
2017-01-01T08:09:40.181Z,0.33
2017-01-01T08:10:49.605Z,0.35
2017-01-01T08:11:59.056Z,0.38
2017-01-01T08:13:09.441Z,0.45
2017-01-01T08:14:19.719Z,0.5
2017-01-01T08:15:29.603Z,0.46
2017-01-01T08:16:39.075Z,0.45
2017-01-01T08:17:48.910Z,0.53
2017-01-01T08:18:58.342Z,0.5
2017-01-01T08:20:08.164Z,0.61
2017-01-01T08:21:18.404Z,0.61
2017-01-01T08:22:27.426Z,0.58
2017-01-01T08:23:37.664Z,0.6
2017-01-01T08:24:47.540Z,0.61
2017-01-01T08:25:57.790Z,0.66
2017-01-01T08:27:08.023Z,0.74
2017-01-01T08:28:17.870Z,0.76
2017-01-01T08:29:28.173Z,0.71
2017-01-01T08:30:38.514Z,0.66
2017-01-01T08:31:48.890Z,0.72
2017-01-01T08:32:59.136Z,0.71
2017-01-01T08:34:08.987Z,0.78
2017-01-01T08:35:19.237Z,0.82
2017-01-01T08:36:28.723Z,0.79
2017-01-01T08:37:39.014Z,0.78
2017-01-01T08:38:48.948Z,0.84
2017-01-01T08:39:58.793Z,0.94
2017-01-01T08:41:09.273Z,0.94
2017-01-01T08:42:18.305Z,1
2017-01-01T08:43:28.143Z,1.02
2017-01-01T08:44:38.607Z,1.04
2017-01-01T08:45:48.960Z,1.06
2017-01-01T08:46:59.314Z,1.03
2017-01-01T08:48:09.143Z,1.04
2017-01-01T08:49:19.582Z,1.02
2017-01-01T08:50:29.983Z,1.04
2017-01-01T08:51:40.390Z,1.15
2017-01-01T08:52:50.722Z,1.04
2017-01-01T08:54:00.599Z,1.14
2017-01-01T08:55:10.081Z,1.02
2017-01-01T08:56:20.321Z,1.02
2017-01-01T08:57:30.154Z,1.03
2017-01-01T08:58:40.430Z,1.06
2017-01-01T08:59:50.306Z,1.14
2017-01-01T09:01:00.135Z,1.12
2017-01-01T09:02:09.189Z,1.21
2017-01-01T09:03:19.460Z,1.24
2017-01-01T09:04:29.700Z,1.24
2017-01-01T09:05:39.947Z,1.32
2017-01-01T09:06:49.831Z,1.33
2017-01-01T09:08:00.162Z,1.4
2017-01-01T09:09:10.025Z,1.54
2017-01-01T09:10:20.273Z,1.51
2017-01-01T09:11:30.617Z,1.55
2017-01-01T09:12:40.494Z,1.66
2017-01-01T09:13:50.360Z,1.5
2017-01-01T09:14:59.916Z,1.51
2017-01-01T09:16:10.187Z,1.48
2017-01-01T09:17:20.459Z,1.55
2017-01-01T09:18:30.743Z,1.5
2017-01-01T09:19:41.039Z,1.64
2017-01-01T09:20:50.887Z,1.55
2017-01-01T09:22:01.209Z,1.57
2017-01-01T09:23:11.488Z,1.55
2017-01-01T09:24:21.749Z,1.55
2017-01-01T09:25:31.994Z,1.66
2017-01-01T09:26:41.868Z,1.55
2017-01-01T09:27:51.773Z,1.48
2017-01-01T09:29:02.042Z,1.58
2017-01-01T09:30:12.317Z,1.58
2017-01-01T09:31:22.546Z,1.67
2017-01-01T09:32:32.883Z,1.69
2017-01-01T09:33:43.170Z,1.67
2017-01-01T09:34:53.426Z,1.72
2017-01-01T09:36:03.717Z,1.74
2017-01-01T09:37:13.962Z,1.82
2017-01-01T09:38:23.439Z,1.76
2017-01-01T09:39:33.690Z,1.9
2017-01-01T09:40:43.659Z,1.9
2017-01-01T09:41:53.590Z,1.91
2017-01-01T09:43:03.017Z,1.92
2017-01-01T09:44:13.279Z,1.95
2017-01-01T09:45:23.165Z,1.98
2017-01-01T09:46:33.056Z,2.01
2017-01-01T09:47:43.300Z,2.08
2017-01-01T09:48:53.151Z,2.12
2017-01-01T09:50:03.374Z,2.12
2017-01-01T09:51:13.235Z,2.21
2017-01-01T09:52:23.119Z,2.23
2017-01-01T09:53:32.991Z,2.28
2017-01-01T09:54:43.238Z,2.37
2017-01-01T09:55:53.117Z,2.31
2017-01-01T09:57:02.962Z,2.44
2017-01-01T09:58:12.793Z,2.49
2017-01-01T09:59:22.639Z,2.56
2017-01-01T10:00:32.871Z,2.91
2017-01-01T10:01:43.154Z,3.24
2017-01-01T10:02:53.415Z,3.76
2017-01-01T10:04:03.654Z,4.08
2017-01-01T10:05:13.496Z,4.52
2017-01-01T10:06:23.332Z,4.93
2017-01-01T10:07:33.644Z,5.35
2017-01-01T10:08:43.068Z,5.72
2017-01-01T10:09:53.370Z,6.11
2017-01-01T10:11:02.815Z,6.57
2017-01-01T10:12:13.087Z,6.82
2017-01-01T10:13:22.932Z,7.18
2017-01-01T10:14:33.210Z,7.47
2017-01-01T10:15:43.526Z,7.76
2017-01-01T10:16:53.425Z,7.85
2017-01-01T10:18:03.307Z,8.28
2017-01-01T10:19:13.545Z,8.49
2017-01-01T10:20:23.798Z,8.93
2017-01-01T10:21:34.128Z,9.12
2017-01-01T10:22:44.482Z,9.37
2017-01-01T10:23:54.376Z,9.53
2017-01-01T10:25:04.606Z,9.8
2017-01-01T10:26:14.042Z,10.1
2017-01-01T10:27:24.295Z,10.34
2017-01-01T10:28:33.820Z,10.39
2017-01-01T10:29:44.124Z,10.34
2017-01-01T10:30:54.395Z,10.51
2017-01-01T10:32:04.673Z,10.67
2017-01-01T10:33:15.030Z,10.83
2017-01-01T10:34:25.289Z,10.8
2017-01-01T10:35:35.228Z,10.7
2017-01-01T10:36:45.648Z,10.32
2017-01-01T10:37:55.887Z,10.03
2017-01-01T10:39:06.176Z,9.58
2017-01-01T10:40:15.677Z,8.98
2017-01-01T10:41:25.989Z,8.48
2017-01-01T10:42:36.347Z,8.12
2017-01-01T10:43:46.744Z,7.76
2017-01-01T10:44:57.017Z,7.4
2017-01-01T10:46:06.873Z,7.03
2017-01-01T10:47:17.150Z,6.6
2017-01-01T10:48:27.611Z,6.38
2017-01-01T10:49:37.893Z,6.01
2017-01-01T10:50:48.183Z,5.88
2017-01-01T10:51:58.101Z,5.74
2017-01-01T10:53:08.501Z,5.5
2017-01-01T10:54:18.846Z,5.33
2017-01-01T10:55:29.099Z,5.26
2017-01-01T10:56:39.364Z,5.21
2017-01-01T10:57:49.392Z,5.1
2017-01-01T10:58:59.706Z,4.92
2017-01-01T11:00:10.030Z,4.88
2017-01-01T11:01:20.287Z,4.92
2017-01-01T11:02:30.554Z,4.89
2017-01-01T11:03:40.544Z,4.93
2017-01-01T11:04:50.019Z,4.8
2017-01-01T11:06:00.393Z,4.81
2017-01-01T11:07:10.253Z,4.71
2017-01-01T11:08:19.781Z,4.7
2017-01-01T11:09:30.023Z,4.59
2017-01-01T11:10:40.284Z,4.53
2017-01-01T11:11:50.125Z,4.3
2017-01-01T11:13:00.389Z,4.25
2017-01-01T11:14:10.717Z,4.01
2017-01-01T11:15:20.561Z,3.94
2017-01-01T11:16:30.393Z,3.87
2017-01-01T11:17:40.296Z,3.9
2017-01-01T11:18:50.163Z,3.83
2017-01-01T11:20:00.490Z,3.8
2017-01-01T11:21:10.900Z,3.75
2017-01-01T11:22:21.285Z,3.69
2017-01-01T11:23:31.153Z,3.65
2017-01-01T11:24:41.501Z,3.64
2017-01-01T11:25:51.750Z,3.57
2017-01-01T11:27:01.999Z,3.69
2017-01-01T11:28:11.848Z,3.58
2017-01-01T11:29:22.168Z,3.5
2017-01-01T11:30:32.249Z,3.52
2017-01-01T11:31:42.116Z,3.46
2017-01-01T11:32:52.430Z,3.54
2017-01-01T11:34:02.668Z,3.52
2017-01-01T11:35:12.999Z,3.55
2017-01-01T11:36:22.834Z,3.57
2017-01-01T11:37:33.076Z,3.46
2017-01-01T11:38:42.930Z,3.57
2017-01-01T11:39:53.279Z,3.55
2017-01-01T11:41:03.525Z,3.52
2017-01-01T11:42:13.886Z,3.43
2017-01-01T11:43:24.212Z,3.4
2017-01-01T11:44:33.634Z,3.37
2017-01-01T11:45:43.512Z,3.43
2017-01-01T11:46:53.780Z,3.26
2017-01-01T11:48:03.627Z,3.32
2017-01-01T11:49:13.480Z,3.32
2017-01-01T11:50:23.732Z,3.31
2017-01-01T11:51:34.032Z,3.26
2017-01-01T11:52:44.353Z,3.26
2017-01-01T11:53:54.857Z,3.28
2017-01-01T11:55:05.114Z,3.22
2017-01-01T11:56:14.992Z,3.25
2017-01-01T11:57:24.816Z,3.26
2017-01-01T11:58:34.367Z,3.21
2017-01-01T11:59:44.248Z,3.16
2017-01-01T12:00:53.700Z,3.16
2017-01-01T12:02:03.947Z,3.06
2017-01-01T12:03:14.191Z,3.06
2017-01-01T12:04:24.432Z,2.99
2017-01-01T12:05:34.740Z,3.08
2017-01-01T12:06:44.985Z,2.94
2017-01-01T12:07:55.239Z,2.94
2017-01-01T12:09:05.117Z,2.91
2017-01-01T12:10:14.576Z,2.94
2017-01-01T12:11:24.465Z,2.92
2017-01-01T12:12:34.735Z,2.89
2017-01-01T12:13:45.020Z,2.88
2017-01-01T12:14:55.295Z,2.92
2017-01-01T12:16:05.797Z,2.91
2017-01-01T12:17:16.082Z,2.89
2017-01-01T12:18:25.921Z,2.96
2017-01-01T12:19:35.763Z,2.96
2017-01-01T12:20:46.104Z,3.07
2017-01-01T12:21:56.439Z,3.04
2017-01-01T12:23:06.345Z,3.04
2017-01-01T12:24:16.671Z,2.99
2017-01-01T12:25:26.944Z,2.88
2017-01-01T12:26:37.235Z,2.88
2017-01-01T12:27:47.792Z,2.92
2017-01-01T12:28:57.669Z,2.82
2017-01-01T12:30:07.948Z,2.92
2017-01-01T12:31:18.318Z,2.96
2017-01-01T12:32:28.612Z,2.92
2017-01-01T12:33:39.005Z,2.91
2017-01-01T12:34:49.310Z,2.92
2017-01-01T12:35:59.244Z,2.91
2017-01-01T12:37:09.141Z,2.97
2017-01-01T12:38:19.040Z,2.89
2017-01-01T12:39:29.370Z,2.92
2017-01-01T12:40:39.222Z,2.91
2017-01-01T12:41:49.521Z,2.99
2017-01-01T12:42:59.419Z,2.84
2017-01-01T12:44:09.272Z,2.91
2017-01-01T12:45:19.159Z,2.89
2017-01-01T12:46:29.729Z,2.94
2017-01-01T12:47:39.596Z,2.99
2017-01-01T12:48:49.463Z,3.04
2017-01-01T12:49:59.722Z,3.02
2017-01-01T12:51:09.283Z,3.1
2017-01-01T12:52:19.547Z,3.13
2017-01-01T12:53:29.877Z,3.11
2017-01-01T12:54:39.756Z,3.19
2017-01-01T12:55:50.129Z,3.16
2017-01-01T12:57:00.021Z,3.06
2017-01-01T12:58:10.529Z,3.1
2017-01-01T12:59:20.863Z,3.1
2017-01-01T13:00:30.739Z,3
2017-01-01T13:01:40.751Z,3.06
2017-01-01T13:02:50.614Z,3.06
2017-01-01T13:04:00.475Z,3.08
2017-01-01T13:05:10.785Z,3.06
2017-01-01T13:06:21.083Z,3.11
2017-01-01T13:07:31.441Z,3.22
2017-01-01T13:08:41.704Z,3.22
2017-01-01T13:09:52.073Z,3.22
2017-01-01T13:11:02.482Z,3.1
2017-01-01T13:12:12.834Z,3.19
2017-01-01T13:13:22.775Z,3.16
2017-01-01T13:14:33.050Z,3.1
2017-01-01T13:15:43.056Z,3.13
2017-01-01T13:16:53.324Z,3.07
2017-01-01T13:18:03.578Z,3.06
2017-01-01T13:19:14.047Z,3.08
2017-01-01T13:20:24.352Z,3.02
2017-01-01T13:21:34.281Z,3.04
2017-01-01T13:22:44.543Z,3.1
2017-01-01T13:23:54.485Z,3.11
2017-01-01T13:25:04.918Z,3.07
2017-01-01T13:26:14.768Z,3.11
2017-01-01T13:27:24.690Z,3.1
2017-01-01T13:28:34.549Z,3.07
2017-01-01T13:29:44.828Z,3.08
2017-01-01T13:30:55.176Z,3.15
2017-01-01T13:32:05.421Z,3.13
2017-01-01T13:33:15.715Z,3.18
2017-01-01T13:34:26.073Z,3.16
2017-01-01T13:35:36.444Z,3.19
2017-01-01T13:36:46.798Z,3.22
2017-01-01T13:37:57.059Z,3.11
2017-01-01T13:39:07.389Z,3.07
2017-01-01T13:40:17.754Z,3.02
2017-01-01T13:41:27.709Z,3.11
2017-01-01T13:42:37.552Z,3.15
2017-01-01T13:43:48.085Z,3.06
2017-01-01T13:44:57.982Z,3.15
2017-01-01T13:46:07.889Z,3.07
2017-01-01T13:47:17.741Z,3.07
2017-01-01T13:48:27.236Z,3.07
2017-01-01T13:49:37.073Z,3.04
2017-01-01T13:50:46.528Z,3.07
2017-01-01T13:51:56.963Z,3.13
2017-01-01T13:53:06.885Z,3.22
2017-01-01T13:54:16.434Z,3.15
2017-01-01T13:55:26.930Z,3.31
2017-01-01T13:56:37.382Z,3.26
2017-01-01T13:57:47.409Z,3.19
2017-01-01T13:58:57.307Z,3.15
2017-01-01T14:00:07.248Z,3.24
2017-01-01T14:01:17.633Z,3.18
2017-01-01T14:02:27.535Z,3.1
2017-01-01T14:03:37.510Z,3.15
2017-01-01T14:04:47.470Z,3.19
2017-01-01T14:05:57.486Z,3.22
2017-01-01T14:07:07.497Z,3.22
2017-01-01T14:08:17.446Z,3.22
2017-01-01T14:09:27.360Z,3.21
2017-01-01T14:10:37.283Z,3.24
2017-01-01T14:11:47.557Z,3.25
2017-01-01T14:12:57.955Z,3.19
2017-01-01T14:14:08.329Z,3.19
2017-01-01T14:15:18.209Z,3.22
2017-01-01T14:16:28.549Z,3.18
2017-01-01T14:17:38.460Z,3.19
2017-01-01T14:18:48.381Z,3.22
2017-01-01T14:19:58.358Z,3.26
2017-01-01T14:21:08.705Z,3.28
2017-01-01T14:22:18.722Z,3.26
2017-01-01T14:23:29.271Z,3.26
2017-01-01T14:24:39.514Z,3.28
2017-01-01T14:25:49.997Z,3.34
2017-01-01T14:26:59.944Z,3.28
2017-01-01T14:28:09.598Z,3.32
2017-01-01T14:29:20.031Z,3.4
2017-01-01T14:30:30.369Z,3.44
2017-01-01T14:31:40.731Z,3.37
2017-01-01T14:32:50.722Z,3.47
2017-01-01T14:34:00.719Z,3.49
2017-01-01T14:35:11.126Z,3.47
2017-01-01T14:36:21.435Z,3.44
2017-01-01T14:37:31.529Z,3.42
2017-01-01T14:38:41.822Z,3.39
2017-01-01T14:39:51.834Z,3.42
2017-01-01T14:41:01.996Z,3.43
2017-01-01T14:42:12.077Z,3.34
2017-01-01T14:43:22.628Z,3.26
2017-01-01T14:44:32.832Z,3.34
2017-01-01T14:45:42.804Z,3.26
2017-01-01T14:46:53.213Z,3.44
2017-01-01T14:48:04.282Z,3.4
2017-01-01T14:49:14.458Z,3.36
2017-01-01T14:50:24.977Z,3.39
2017-01-01T14:51:35.982Z,3.26
2017-01-01T14:52:46.556Z,3.26
2017-01-01T14:53:56.949Z,3.21
2017-01-01T14:55:06.949Z,3.19
2017-01-01T14:56:17.849Z,3.19
2017-01-01T14:57:28.479Z,3.15
2017-01-01T14:58:38.476Z,3.1
2017-01-01T14:59:49.107Z,3.07
2017-01-01T15:00:59.241Z,3.07
2017-01-01T15:02:10.403Z,3.15
2017-01-01T15:03:20.499Z,3.21
2017-01-01T15:04:30.942Z,3.25
2017-01-01T15:05:40.960Z,3.08
2017-01-01T15:06:50.514Z,3.16
2017-01-01T15:08:00.902Z,3.22
2017-01-01T15:09:10.560Z,3.15
2017-01-01T15:10:21.507Z,3.16
2017-01-01T15:11:31.625Z,3.07
2017-01-01T15:12:41.664Z,3.1
2017-01-01T15:13:51.561Z,3.1
2017-01-01T15:15:01.995Z,3.25
2017-01-01T15:16:12.835Z,3.11
2017-01-01T15:17:23.045Z,3.1
2017-01-01T15:18:33.512Z,3.1
2017-01-01T15:19:43.851Z,3.06
2017-01-01T15:20:54.115Z,3.1
2017-01-01T15:22:04.369Z,3.06
2017-01-01T15:23:15.019Z,3.06
2017-01-01T15:24:25.240Z,3.06
2017-01-01T15:25:35.468Z,3.04
2017-01-01T15:26:46.342Z,3.04
2017-01-01T15:27:56.593Z,3.04
2017-01-01T15:29:07.090Z,2.99
2017-01-01T15:30:18.219Z,2.99
2017-01-01T15:31:28.494Z,3.04
2017-01-01T15:32:39.708Z,3
2017-01-01T15:33:50.766Z,2.94